sensor_id;sensor_type;location;lat;lon;timestamp;P1;durP1;ratioP1;P2;durP2;ratioP2
45684;SDS011;46836;48.388;16.210;2023-03-01T00:01:06;19.38;;;11.70;;
45684;SDS011;46836;48.388;16.210;2023-03-01T00:03:35;21.77;;;12.50;;
45684;SDS011;46836;48.388;16.210;2023-03-01T00:06:02;20.27;;;11.98;;
45684;SDS011;46836;48.388;16.210;2023-03-01T00:08:30;24.50;;;12.40;;
45684;SDS011;46836;48.388;16.210;2023-03-01T00:11:09;21.33;;;12.40;;
45684;SDS011;46836;48.388;16.210;2023-03-01T00:13:40;22.67;;;12.05;;
45684;SDS011;46836;48.388;16.210;2023-03-01T00:16:09;24.67;;;11.75;;
45684;SDS011;46836;48.388;16.210;2023-03-01T00:18:39;32.85;;;12.35;;
45684;SDS011;46836;48.388;16.210;2023-03-01T00:21:07;22.55;;;12.13;;
45684;SDS011;46836;48.388;16.210;2023-03-01T00:23:34;27.83;;;13.20;;
45684;SDS011;46836;48.388;16.210;2023-03-01T00:26:02;27.75;;;11.70;;
45684;SDS011;46836;48.388;16.210;2023-03-01T00:28:32;24.23;;;13.57;;
45684;SDS011;46836;48.388;16.210;2023-03-01T00:31:03;23.55;;;12.60;;
45684;SDS011;46836;48.388;16.210;2023-03-01T00:33:32;25.13;;;14.40;;
45684;SDS011;46836;48.388;16.210;2023-03-01T00:36:00;25.23;;;11.82;;
45684;SDS011;46836;48.388;16.210;2023-03-01T00:38:27;23.98;;;12.13;;
45684;SDS011;46836;48.388;16.210;2023-03-01T00:40:54;29.00;;;11.95;;
45684;SDS011;46836;48.388;16.210;2023-03-01T00:43:21;27.15;;;13.00;;
45684;SDS011;46836;48.388;16.210;2023-03-01T00:45:48;26.92;;;13.50;;
45684;SDS011;46836;48.388;16.210;2023-03-01T00:48:16;23.60;;;13.02;;
45684;SDS011;46836;48.388;16.210;2023-03-01T00:50:43;30.33;;;14.43;;
45684;SDS011;46836;48.388;16.210;2023-03-01T00:53:10;24.33;;;12.05;;
45684;SDS011;46836;48.388;16.210;2023-03-01T00:55:37;25.52;;;14.13;;
45684;SDS011;46836;48.388;16.210;2023-03-01T00:58:04;29.58;;;13.73;;
45684;SDS011;46836;48.388;16.210;2023-03-01T01:00:31;25.58;;;12.93;;
45684;SDS011;46836;48.388;16.210;2023-03-01T01:02:58;27.73;;;14.73;;
45684;SDS011;46836;48.388;16.210;2023-03-01T01:05:25;25.45;;;13.30;;
45684;SDS011;46836;48.388;16.210;2023-03-01T01:07:52;22.27;;;11.48;;
45684;SDS011;46836;48.388;16.210;2023-03-01T01:10:19;25.23;;;14.02;;
45684;SDS011;46836;48.388;16.210;2023-03-01T01:12:47;28.55;;;13.40;;
45684;SDS011;46836;48.388;16.210;2023-03-01T01:15:14;27.27;;;15.18;;
45684;SDS011;46836;48.388;16.210;2023-03-01T01:17:42;26.80;;;13.75;;
45684;SDS011;46836;48.388;16.210;2023-03-01T01:20:10;30.75;;;14.00;;
45684;SDS011;46836;48.388;16.210;2023-03-01T01:22:37;53.55;;;12.70;;
45684;SDS011;46836;48.388;16.210;2023-03-01T01:25:04;28.33;;;14.43;;
45684;SDS011;46836;48.388;16.210;2023-03-01T01:27:32;26.55;;;14.35;;
45684;SDS011;46836;48.388;16.210;2023-03-01T01:29:59;24.50;;;13.25;;
45684;SDS011;46836;48.388;16.210;2023-03-01T01:32:26;27.65;;;14.40;;
45684;SDS011;46836;48.388;16.210;2023-03-01T01:34:53;26.80;;;13.45;;
45684;SDS011;46836;48.388;16.210;2023-03-01T01:37:20;31.55;;;14.90;;
45684;SDS011;46836;48.388;16.210;2023-03-01T01:39:47;26.83;;;13.75;;
45684;SDS011;46836;48.388;16.210;2023-03-01T01:42:18;27.05;;;13.70;;
45684;SDS011;46836;48.388;16.210;2023-03-01T01:44:45;28.65;;;14.38;;
45684;SDS011;46836;48.388;16.210;2023-03-01T01:47:17;27.25;;;14.35;;
45684;SDS011;46836;48.388;16.210;2023-03-01T01:49:54;27.60;;;13.40;;
45684;SDS011;46836;48.388;16.210;2023-03-01T01:52:27;26.92;;;14.18;;
45684;SDS011;46836;48.388;16.210;2023-03-01T01:55:03;30.92;;;15.80;;
45684;SDS011;46836;48.388;16.210;2023-03-01T01:57:36;28.42;;;13.50;;
45684;SDS011;46836;48.388;16.210;2023-03-01T02:02:46;30.88;;;14.70;;
45684;SDS011;46836;48.388;16.210;2023-03-01T02:05:26;26.38;;;14.27;;
45684;SDS011;46836;48.388;16.210;2023-03-01T02:08:10;25.80;;;13.73;;
45684;SDS011;46836;48.388;16.210;2023-03-01T02:10:39;26.48;;;13.75;;
45684;SDS011;46836;48.388;16.210;2023-03-01T02:13:07;25.20;;;12.70;;
45684;SDS011;46836;48.388;16.210;2023-03-01T02:15:35;27.95;;;13.27;;
45684;SDS011;46836;48.388;16.210;2023-03-01T02:18:05;29.30;;;13.82;;
45684;SDS011;46836;48.388;16.210;2023-03-01T02:20:35;31.85;;;14.52;;
45684;SDS011;46836;48.388;16.210;2023-03-01T02:23:23;28.80;;;14.38;;
45684;SDS011;46836;48.388;16.210;2023-03-01T02:26:00;24.25;;;13.20;;
45684;SDS011;46836;48.388;16.210;2023-03-01T02:28:42;29.40;;;14.45;;
45684;SDS011;46836;48.388;16.210;2023-03-01T02:31:14;28.88;;;14.25;;
45684;SDS011;46836;48.388;16.210;2023-03-01T02:34:02;29.25;;;14.73;;
45684;SDS011;46836;48.388;16.210;2023-03-01T02:36:32;26.55;;;14.30;;
45684;SDS011;46836;48.388;16.210;2023-03-01T02:39:03;28.38;;;15.57;;
45684;SDS011;46836;48.388;16.210;2023-03-01T02:41:36;26.10;;;13.43;;
45684;SDS011;46836;48.388;16.210;2023-03-01T02:44:05;27.25;;;13.15;;
45684;SDS011;46836;48.388;16.210;2023-03-01T02:46:32;29.90;;;13.93;;
45684;SDS011;46836;48.388;16.210;2023-03-01T02:48:59;31.00;;;14.27;;
45684;SDS011;46836;48.388;16.210;2023-03-01T02:51:37;23.70;;;13.48;;
45684;SDS011;46836;48.388;16.210;2023-03-01T02:54:15;27.10;;;13.88;;
45684;SDS011;46836;48.388;16.210;2023-03-01T02:57:03;22.23;;;11.30;;
45684;SDS011;46836;48.388;16.210;2023-03-01T02:59:30;27.92;;;14.02;;
45684;SDS011;46836;48.388;16.210;2023-03-01T03:02:06;23.38;;;13.55;;
45684;SDS011;46836;48.388;16.210;2023-03-01T03:04:34;19.95;;;11.43;;
45684;SDS011;46836;48.388;16.210;2023-03-01T03:07:01;25.00;;;12.07;;
45684;SDS011;46836;48.388;16.210;2023-03-01T03:09:28;25.27;;;12.93;;
45684;SDS011;46836;48.388;16.210;2023-03-01T03:11:55;30.10;;;15.55;;
45684;SDS011;46836;48.388;16.210;2023-03-01T03:14:22;23.38;;;13.63;;
45684;SDS011;46836;48.388;16.210;2023-03-01T03:16:50;28.67;;;15.40;;
45684;SDS011;46836;48.388;16.210;2023-03-01T03:19:17;36.58;;;17.30;;
45684;SDS011;46836;48.388;16.210;2023-03-01T03:21:46;31.15;;;16.40;;
45684;SDS011;46836;48.388;16.210;2023-03-01T03:24:13;30.63;;;16.67;;
45684;SDS011;46836;48.388;16.210;2023-03-01T03:26:40;30.98;;;16.35;;
45684;SDS011;46836;48.388;16.210;2023-03-01T03:29:07;33.17;;;15.63;;
45684;SDS011;46836;48.388;16.210;2023-03-01T03:31:34;30.98;;;19.17;;
45684;SDS011;46836;48.388;16.210;2023-03-01T03:34:01;32.05;;;18.10;;
45684;SDS011;46836;48.388;16.210;2023-03-01T03:36:28;32.63;;;17.13;;
45684;SDS011;46836;48.388;16.210;2023-03-01T03:38:55;30.58;;;14.85;;
45684;SDS011;46836;48.388;16.210;2023-03-01T03:41:23;33.88;;;15.77;;
45684;SDS011;46836;48.388;16.210;2023-03-01T03:43:50;36.30;;;16.73;;
45684;SDS011;46836;48.388;16.210;2023-03-01T03:46:17;31.27;;;15.90;;
45684;SDS011;46836;48.388;16.210;2023-03-01T03:48:44;32.47;;;14.63;;
45684;SDS011;46836;48.388;16.210;2023-03-01T03:51:13;31.27;;;14.80;;
45684;SDS011;46836;48.388;16.210;2023-03-01T03:53:41;28.80;;;15.48;;
45684;SDS011;46836;48.388;16.210;2023-03-01T03:56:09;29.52;;;15.95;;
45684;SDS011;46836;48.388;16.210;2023-03-01T03:58:37;35.33;;;16.95;;
45684;SDS011;46836;48.388;16.210;2023-03-01T04:01:04;36.13;;;17.05;;
45684;SDS011;46836;48.388;16.210;2023-03-01T04:03:32;28.98;;;16.65;;
45684;SDS011;46836;48.388;16.210;2023-03-01T04:06:01;34.28;;;16.63;;
45684;SDS011;46836;48.388;16.210;2023-03-01T04:08:29;27.92;;;15.05;;
45684;SDS011;46836;48.388;16.210;2023-03-01T04:10:57;32.35;;;14.90;;
45684;SDS011;46836;48.388;16.210;2023-03-01T04:13:26;28.70;;;15.40;;
45684;SDS011;46836;48.388;16.210;2023-03-01T04:15:54;29.95;;;16.20;;
45684;SDS011;46836;48.388;16.210;2023-03-01T04:18:22;38.03;;;17.92;;
45684;SDS011;46836;48.388;16.210;2023-03-01T04:20:52;31.67;;;14.80;;
45684;SDS011;46836;48.388;16.210;2023-03-01T04:23:21;30.00;;;15.20;;
45684;SDS011;46836;48.388;16.210;2023-03-01T04:25:53;28.38;;;15.02;;
45684;SDS011;46836;48.388;16.210;2023-03-01T04:28:32;28.70;;;14.43;;
45684;SDS011;46836;48.388;16.210;2023-03-01T04:31:05;28.05;;;15.05;;
45684;SDS011;46836;48.388;16.210;2023-03-01T04:33:45;27.02;;;15.18;;
45684;SDS011;46836;48.388;16.210;2023-03-01T04:36:15;27.42;;;15.52;;
45684;SDS011;46836;48.388;16.210;2023-03-01T04:38:44;30.67;;;16.77;;
45684;SDS011;46836;48.388;16.210;2023-03-01T04:41:15;30.30;;;14.43;;
45684;SDS011;46836;48.388;16.210;2023-03-01T04:43:44;30.55;;;14.25;;
45684;SDS011;46836;48.388;16.210;2023-03-01T04:46:12;26.15;;;14.95;;
45684;SDS011;46836;48.388;16.210;2023-03-01T04:48:42;27.05;;;15.40;;
45684;SDS011;46836;48.388;16.210;2023-03-01T04:51:11;31.30;;;15.57;;
45684;SDS011;46836;48.388;16.210;2023-03-01T04:53:40;34.42;;;16.30;;
45684;SDS011;46836;48.388;16.210;2023-03-01T04:56:07;31.02;;;16.63;;
45684;SDS011;46836;48.388;16.210;2023-03-01T04:58:35;37.75;;;17.27;;
45684;SDS011;46836;48.388;16.210;2023-03-01T05:01:07;26.65;;;14.75;;
45684;SDS011;46836;48.388;16.210;2023-03-01T05:03:42;36.35;;;16.42;;
45684;SDS011;46836;48.388;16.210;2023-03-01T05:06:14;31.45;;;15.73;;
45684;SDS011;46836;48.388;16.210;2023-03-01T05:08:41;31.00;;;15.77;;
45684;SDS011;46836;48.388;16.210;2023-03-01T05:11:09;31.67;;;16.77;;
45684;SDS011;46836;48.388;16.210;2023-03-01T05:13:37;36.08;;;16.65;;
45684;SDS011;46836;48.388;16.210;2023-03-01T05:16:06;33.55;;;16.77;;
45684;SDS011;46836;48.388;16.210;2023-03-01T05:18:38;27.70;;;16.80;;
45684;SDS011;46836;48.388;16.210;2023-03-01T05:21:10;34.25;;;15.95;;
45684;SDS011;46836;48.388;16.210;2023-03-01T05:23:39;35.28;;;17.02;;
45684;SDS011;46836;48.388;16.210;2023-03-01T05:26:07;35.53;;;18.45;;
45684;SDS011;46836;48.388;16.210;2023-03-01T05:28:51;34.50;;;17.63;;
45684;SDS011;46836;48.388;16.210;2023-03-01T05:31:18;33.88;;;17.23;;
45684;SDS011;46836;48.388;16.210;2023-03-01T05:33:45;33.95;;;17.08;;
45684;SDS011;46836;48.388;16.210;2023-03-01T05:36:12;35.25;;;16.70;;
45684;SDS011;46836;48.388;16.210;2023-03-01T05:38:39;30.25;;;15.40;;
45684;SDS011;46836;48.388;16.210;2023-03-01T05:41:12;33.13;;;15.93;;
45684;SDS011;46836;48.388;16.210;2023-03-01T05:43:41;32.08;;;16.13;;
45684;SDS011;46836;48.388;16.210;2023-03-01T05:46:09;35.05;;;17.48;;
45684;SDS011;46836;48.388;16.210;2023-03-01T05:48:38;40.33;;;16.35;;
45684;SDS011;46836;48.388;16.210;2023-03-01T05:51:05;33.03;;;16.67;;
45684;SDS011;46836;48.388;16.210;2023-03-01T05:53:33;32.42;;;16.55;;
45684;SDS011;46836;48.388;16.210;2023-03-01T05:56:02;32.88;;;16.27;;
45684;SDS011;46836;48.388;16.210;2023-03-01T05:58:30;29.75;;;15.93;;
45684;SDS011;46836;48.388;16.210;2023-03-01T06:00:57;34.28;;;16.65;;
45684;SDS011;46836;48.388;16.210;2023-03-01T06:03:24;32.15;;;15.35;;
45684;SDS011;46836;48.388;16.210;2023-03-01T06:05:55;32.95;;;17.17;;
45684;SDS011;46836;48.388;16.210;2023-03-01T06:08:23;32.58;;;16.92;;
45684;SDS011;46836;48.388;16.210;2023-03-01T06:10:53;31.40;;;16.55;;
45684;SDS011;46836;48.388;16.210;2023-03-01T06:13:20;31.70;;;16.35;;
45684;SDS011;46836;48.388;16.210;2023-03-01T06:15:47;29.20;;;15.90;;
45684;SDS011;46836;48.388;16.210;2023-03-01T06:18:14;35.00;;;15.70;;
45684;SDS011;46836;48.388;16.210;2023-03-01T06:20:41;30.50;;;16.30;;
45684;SDS011;46836;48.388;16.210;2023-03-01T06:23:08;25.08;;;14.23;;
45684;SDS011;46836;48.388;16.210;2023-03-01T06:25:36;28.17;;;15.98;;
45684;SDS011;46836;48.388;16.210;2023-03-01T06:28:03;30.08;;;16.77;;
45684;SDS011;46836;48.388;16.210;2023-03-01T06:30:30;27.25;;;14.90;;
45684;SDS011;46836;48.388;16.210;2023-03-01T06:32:58;28.08;;;16.50;;
45684;SDS011;46836;48.388;16.210;2023-03-01T06:35:29;26.00;;;15.30;;
45684;SDS011;46836;48.388;16.210;2023-03-01T06:37:57;32.90;;;17.25;;
45684;SDS011;46836;48.388;16.210;2023-03-01T06:40:26;31.30;;;15.57;;
45684;SDS011;46836;48.388;16.210;2023-03-01T06:42:54;34.40;;;15.77;;
45684;SDS011;46836;48.388;16.210;2023-03-01T06:45:21;29.83;;;15.93;;
45684;SDS011;46836;48.388;16.210;2023-03-01T06:47:48;38.10;;;15.23;;
45684;SDS011;46836;48.388;16.210;2023-03-01T06:50:16;27.17;;;14.80;;
45684;SDS011;46836;48.388;16.210;2023-03-01T06:52:44;28.67;;;15.40;;
45684;SDS011;46836;48.388;16.210;2023-03-01T06:55:12;29.50;;;16.38;;
45684;SDS011;46836;48.388;16.210;2023-03-01T06:57:40;26.77;;;14.48;;
45684;SDS011;46836;48.388;16.210;2023-03-01T07:00:07;27.58;;;16.55;;
45684;SDS011;46836;48.388;16.210;2023-03-01T07:02:35;32.65;;;16.05;;
45684;SDS011;46836;48.388;16.210;2023-03-01T07:05:02;29.60;;;16.35;;
45684;SDS011;46836;48.388;16.210;2023-03-01T07:07:29;31.02;;;18.13;;
45684;SDS011;46836;48.388;16.210;2023-03-01T07:09:56;28.90;;;16.88;;
45684;SDS011;46836;48.388;16.210;2023-03-01T07:12:23;30.08;;;17.10;;
45684;SDS011;46836;48.388;16.210;2023-03-01T07:14:50;30.95;;;16.33;;
45684;SDS011;46836;48.388;16.210;2023-03-01T07:17:17;27.33;;;16.88;;
45684;SDS011;46836;48.388;16.210;2023-03-01T07:19:45;35.88;;;18.00;;
45684;SDS011;46836;48.388;16.210;2023-03-01T07:22:12;26.05;;;16.80;;
45684;SDS011;46836;48.388;16.210;2023-03-01T07:24:40;28.83;;;15.85;;
45684;SDS011;46836;48.388;16.210;2023-03-01T07:27:07;32.42;;;16.83;;
45684;SDS011;46836;48.388;16.210;2023-03-01T07:29:35;28.05;;;14.95;;
45684;SDS011;46836;48.388;16.210;2023-03-01T07:32:05;26.33;;;17.42;;
45684;SDS011;46836;48.388;16.210;2023-03-01T07:34:32;28.88;;;16.27;;
45684;SDS011;46836;48.388;16.210;2023-03-01T07:36:59;35.83;;;17.35;;
45684;SDS011;46836;48.388;16.210;2023-03-01T07:39:26;31.60;;;17.27;;
45684;SDS011;46836;48.388;16.210;2023-03-01T07:41:53;27.60;;;16.13;;
45684;SDS011;46836;48.388;16.210;2023-03-01T07:44:20;26.88;;;17.10;;
45684;SDS011;46836;48.388;16.210;2023-03-01T07:46:47;31.27;;;17.73;;
45684;SDS011;46836;48.388;16.210;2023-03-01T07:49:15;29.70;;;17.50;;
45684;SDS011;46836;48.388;16.210;2023-03-01T07:51:42;26.73;;;16.60;;
45684;SDS011;46836;48.388;16.210;2023-03-01T07:54:09;30.48;;;16.73;;
45684;SDS011;46836;48.388;16.210;2023-03-01T07:56:37;30.00;;;16.45;;
45684;SDS011;46836;48.388;16.210;2023-03-01T07:59:04;31.40;;;16.42;;
45684;SDS011;46836;48.388;16.210;2023-03-01T08:01:31;37.78;;;17.60;;
45684;SDS011;46836;48.388;16.210;2023-03-01T08:03:58;28.27;;;16.70;;
45684;SDS011;46836;48.388;16.210;2023-03-01T08:06:25;28.58;;;15.23;;
45684;SDS011;46836;48.388;16.210;2023-03-01T08:08:52;28.50;;;17.30;;
45684;SDS011;46836;48.388;16.210;2023-03-01T08:11:22;32.58;;;17.08;;
45684;SDS011;46836;48.388;16.210;2023-03-01T08:13:50;28.23;;;17.42;;
45684;SDS011;46836;48.388;16.210;2023-03-01T08:16:19;32.35;;;16.40;;
45684;SDS011;46836;48.388;16.210;2023-03-01T08:18:47;32.88;;;17.98;;
45684;SDS011;46836;48.388;16.210;2023-03-01T08:21:14;32.35;;;18.35;;
45684;SDS011;46836;48.388;16.210;2023-03-01T08:23:43;33.85;;;18.83;;
45684;SDS011;46836;48.388;16.210;2023-03-01T08:26:18;28.83;;;17.00;;
45684;SDS011;46836;48.388;16.210;2023-03-01T08:28:46;26.77;;;16.75;;
45684;SDS011;46836;48.388;16.210;2023-03-01T08:31:19;30.70;;;16.42;;
45684;SDS011;46836;48.388;16.210;2023-03-01T08:33:52;31.73;;;16.10;;
45684;SDS011;46836;48.388;16.210;2023-03-01T08:36:24;26.52;;;16.95;;
45684;SDS011;46836;48.388;16.210;2023-03-01T08:38:57;29.48;;;18.08;;
45684;SDS011;46836;48.388;16.210;2023-03-01T08:41:24;28.98;;;16.67;;
45684;SDS011;46836;48.388;16.210;2023-03-01T08:43:52;28.67;;;16.42;;
45684;SDS011;46836;48.388;16.210;2023-03-01T08:46:32;29.58;;;16.23;;
45684;SDS011;46836;48.388;16.210;2023-03-01T08:49:20;27.15;;;16.02;;
45684;SDS011;46836;48.388;16.210;2023-03-01T08:51:47;29.95;;;17.48;;
45684;SDS011;46836;48.388;16.210;2023-03-01T08:54:16;30.40;;;16.42;;
45684;SDS011;46836;48.388;16.210;2023-03-01T08:56:45;30.52;;;17.45;;
45684;SDS011;46836;48.388;16.210;2023-03-01T08:59:13;29.80;;;17.83;;
45684;SDS011;46836;48.388;16.210;2023-03-01T09:01:41;30.27;;;17.98;;
45684;SDS011;46836;48.388;16.210;2023-03-01T09:04:11;25.38;;;16.55;;
45684;SDS011;46836;48.388;16.210;2023-03-01T09:06:40;29.77;;;17.08;;
45684;SDS011;46836;48.388;16.210;2023-03-01T09:09:13;28.58;;;15.40;;
45684;SDS011;46836;48.388;16.210;2023-03-01T09:11:42;29.15;;;16.77;;
45684;SDS011;46836;48.388;16.210;2023-03-01T09:14:12;33.05;;;17.65;;
45684;SDS011;46836;48.388;16.210;2023-03-01T09:16:40;31.33;;;17.42;;
45684;SDS011;46836;48.388;16.210;2023-03-01T09:19:07;28.90;;;17.75;;
45684;SDS011;46836;48.388;16.210;2023-03-01T09:21:34;30.95;;;17.67;;
45684;SDS011;46836;48.388;16.210;2023-03-01T09:24:13;32.25;;;18.77;;
45684;SDS011;46836;48.388;16.210;2023-03-01T09:26:41;32.17;;;18.40;;
45684;SDS011;46836;48.388;16.210;2023-03-01T09:29:09;31.73;;;18.02;;
45684;SDS011;46836;48.388;16.210;2023-03-01T09:31:36;32.88;;;19.27;;
45684;SDS011;46836;48.388;16.210;2023-03-01T09:34:04;34.15;;;17.92;;
45684;SDS011;46836;48.388;16.210;2023-03-01T09:36:32;27.85;;;17.10;;
45684;SDS011;46836;48.388;16.210;2023-03-01T09:39:00;30.15;;;18.77;;
45684;SDS011;46836;48.388;16.210;2023-03-01T09:47:14;29.70;;;17.48;;
45684;SDS011;46836;48.388;16.210;2023-03-01T09:49:53;27.23;;;17.13;;
45684;SDS011;46836;48.388;16.210;2023-03-01T09:52:39;29.20;;;17.42;;
45684;SDS011;46836;48.388;16.210;2023-03-01T09:55:08;28.17;;;18.02;;
45684;SDS011;46836;48.388;16.210;2023-03-01T10:00:36;28.50;;;15.95;;
45684;SDS011;46836;48.388;16.210;2023-03-01T10:03:17;29.38;;;16.35;;
45684;SDS011;46836;48.388;16.210;2023-03-01T10:08:49;25.98;;;16.73;;
45684;SDS011;46836;48.388;16.210;2023-03-01T10:11:25;24.38;;;16.30;;
45684;SDS011;46836;48.388;16.210;2023-03-01T10:13:59;25.55;;;16.15;;
45684;SDS011;46836;48.388;16.210;2023-03-01T10:19:11;32.72;;;15.98;;
45684;SDS011;46836;48.388;16.210;2023-03-01T10:21:46;23.48;;;15.70;;
45684;SDS011;46836;48.388;16.210;2023-03-01T10:24:17;25.17;;;16.70;;
45684;SDS011;46836;48.388;16.210;2023-03-01T10:29:41;26.33;;;14.65;;
45684;SDS011;46836;48.388;16.210;2023-03-01T10:32:15;29.42;;;15.55;;
45684;SDS011;46836;48.388;16.210;2023-03-01T10:34:43;24.00;;;14.88;;
45684;SDS011;46836;48.388;16.210;2023-03-01T10:37:12;28.48;;;15.48;;
45684;SDS011;46836;48.388;16.210;2023-03-01T10:42:28;26.88;;;14.32;;
45684;SDS011;46836;48.388;16.210;2023-03-01T10:48:03;21.63;;;15.18;;
45684;SDS011;46836;48.388;16.210;2023-03-01T10:50:32;23.35;;;13.80;;
45684;SDS011;46836;48.388;16.210;2023-03-01T10:53:03;23.77;;;15.13;;
45684;SDS011;46836;48.388;16.210;2023-03-01T10:58:20;21.23;;;13.57;;
45684;SDS011;46836;48.388;16.210;2023-03-01T11:00:55;25.42;;;15.13;;
45684;SDS011;46836;48.388;16.210;2023-03-01T11:03:31;23.48;;;14.85;;
45684;SDS011;46836;48.388;16.210;2023-03-01T11:06:02;29.98;;;14.65;;
45684;SDS011;46836;48.388;16.210;2023-03-01T11:08:36;24.60;;;15.20;;
45684;SDS011;46836;48.388;16.210;2023-03-01T11:16:29;19.70;;;13.30;;
45684;SDS011;46836;48.388;16.210;2023-03-01T11:21:43;20.42;;;14.05;;
45684;SDS011;46836;48.388;16.210;2023-03-01T11:24:22;19.45;;;12.60;;
45684;SDS011;46836;48.388;16.210;2023-03-01T11:27:04;21.10;;;13.27;;
45684;SDS011;46836;48.388;16.210;2023-03-01T11:29:44;17.48;;;9.55;;
45684;SDS011;46836;48.388;16.210;2023-03-01T11:32:19;14.35;;;10.15;;
45684;SDS011;46836;48.388;16.210;2023-03-01T11:34:57;15.32;;;10.70;;
45684;SDS011;46836;48.388;16.210;2023-03-01T11:41:16;18.65;;;11.27;;
45684;SDS011;46836;48.388;16.210;2023-03-01T11:44:36;24.30;;;12.02;;
45684;SDS011;46836;48.388;16.210;2023-03-01T11:46:49;20.13;;;12.90;;
45684;SDS011;46836;48.388;16.210;2023-03-01T12:06:24;17.05;;;11.57;;
45684;SDS011;46836;48.388;16.210;2023-03-01T12:14:41;16.85;;;11.68;;
45684;SDS011;46836;48.388;16.210;2023-03-01T12:17:28;16.05;;;11.85;;
45684;SDS011;46836;48.388;16.210;2023-03-01T12:23:10;19.45;;;11.93;;
45684;SDS011;46836;48.388;16.210;2023-03-01T12:28:50;21.83;;;13.52;;
45684;SDS011;46836;48.388;16.210;2023-03-01T12:31:35;20.15;;;13.68;;
45684;SDS011;46836;48.388;16.210;2023-03-01T12:40:13;24.73;;;14.18;;
45684;SDS011;46836;48.388;16.210;2023-03-01T12:48:40;17.80;;;11.30;;
45684;SDS011;46836;48.388;16.210;2023-03-01T12:51:28;27.80;;;12.70;;
45684;SDS011;46836;48.388;16.210;2023-03-01T12:53:58;20.65;;;13.38;;
45684;SDS011;46836;48.388;16.210;2023-03-01T12:56:28;24.02;;;14.15;;
45684;SDS011;46836;48.388;16.210;2023-03-01T13:04:50;19.63;;;11.95;;
45684;SDS011;46836;48.388;16.210;2023-03-01T13:13:12;20.40;;;12.48;;
45684;SDS011;46836;48.388;16.210;2023-03-01T13:15:39;17.20;;;12.38;;
45684;SDS011;46836;48.388;16.210;2023-03-01T13:20:47;21.55;;;12.82;;
45684;SDS011;46836;48.388;16.210;2023-03-01T13:23:29;18.92;;;12.02;;
45684;SDS011;46836;48.388;16.210;2023-03-01T13:31:05;24.98;;;13.80;;
45684;SDS011;46836;48.388;16.210;2023-03-01T13:33:39;17.70;;;12.10;;
45684;SDS011;46836;48.388;16.210;2023-03-01T13:44:17;18.80;;;12.30;;
45684;SDS011;46836;48.388;16.210;2023-03-01T13:46:51;16.90;;;10.95;;
45684;SDS011;46836;48.388;16.210;2023-03-01T13:49:22;16.13;;;11.93;;
45684;SDS011;46836;48.388;16.210;2023-03-01T13:52:00;24.60;;;14.20;;
45684;SDS011;46836;48.388;16.210;2023-03-01T13:54:31;26.23;;;14.20;;
45684;SDS011;46836;48.388;16.210;2023-03-01T13:56:59;19.30;;;13.13;;
45684;SDS011;46836;48.388;16.210;2023-03-01T13:59:28;21.13;;;13.00;;
45684;SDS011;46836;48.388;16.210;2023-03-01T14:01:57;25.98;;;12.50;;
45684;SDS011;46836;48.388;16.210;2023-03-01T14:04:30;22.55;;;13.77;;
45684;SDS011;46836;48.388;16.210;2023-03-01T14:07:12;20.63;;;12.52;;
45684;SDS011;46836;48.388;16.210;2023-03-01T14:09:51;22.63;;;13.30;;
45684;SDS011;46836;48.388;16.210;2023-03-01T14:20:22;21.88;;;12.30;;
45684;SDS011;46836;48.388;16.210;2023-03-01T14:22:52;19.50;;;13.05;;
45684;SDS011;46836;48.388;16.210;2023-03-01T14:25:31;20.00;;;13.07;;
45684;SDS011;46836;48.388;16.210;2023-03-01T14:30:49;24.88;;;13.50;;
45684;SDS011;46836;48.388;16.210;2023-03-01T14:33:25;22.67;;;12.85;;
45684;SDS011;46836;48.388;16.210;2023-03-01T14:35:59;25.17;;;14.80;;
45684;SDS011;46836;48.388;16.210;2023-03-01T14:40:58;21.23;;;13.75;;
45684;SDS011;46836;48.388;16.210;2023-03-01T14:43:31;22.20;;;13.57;;
45684;SDS011;46836;48.388;16.210;2023-03-01T14:45:59;24.17;;;14.23;;
45684;SDS011;46836;48.388;16.210;2023-03-01T14:48:26;31.63;;;17.27;;
45684;SDS011;46836;48.388;16.210;2023-03-01T14:50:55;25.30;;;14.43;;
45684;SDS011;46836;48.388;16.210;2023-03-01T14:53:26;22.67;;;12.70;;
45684;SDS011;46836;48.388;16.210;2023-03-01T14:56:02;26.38;;;14.05;;
45684;SDS011;46836;48.388;16.210;2023-03-01T14:58:31;22.95;;;12.50;;
45684;SDS011;46836;48.388;16.210;2023-03-01T15:01:00;19.33;;;13.63;;
45684;SDS011;46836;48.388;16.210;2023-03-01T15:03:31;17.17;;;12.35;;
45684;SDS011;46836;48.388;16.210;2023-03-01T15:06:01;18.02;;;12.27;;
45684;SDS011;46836;48.388;16.210;2023-03-01T15:08:31;21.00;;;13.60;;
45684;SDS011;46836;48.388;16.210;2023-03-01T15:13:43;22.90;;;13.55;;
45684;SDS011;46836;48.388;16.210;2023-03-01T15:16:13;20.10;;;13.90;;
45684;SDS011;46836;48.388;16.210;2023-03-01T15:18:53;19.98;;;12.65;;
45684;SDS011;46836;48.388;16.210;2023-03-01T15:21:32;23.05;;;14.00;;
45684;SDS011;46836;48.388;16.210;2023-03-01T15:24:23;20.27;;;11.77;;
45684;SDS011;46836;48.388;16.210;2023-03-01T15:26:55;19.10;;;13.10;;
45684;SDS011;46836;48.388;16.210;2023-03-01T15:29:28;19.52;;;13.50;;
45684;SDS011;46836;48.388;16.210;2023-03-01T15:32:01;20.58;;;12.95;;
45684;SDS011;46836;48.388;16.210;2023-03-01T15:34:47;21.95;;;12.45;;
45684;SDS011;46836;48.388;16.210;2023-03-01T15:37:57;23.35;;;13.27;;
45684;SDS011;46836;48.388;16.210;2023-03-01T15:40:24;20.75;;;13.18;;
45684;SDS011;46836;48.388;16.210;2023-03-01T15:42:59;20.90;;;12.35;;
45684;SDS011;46836;48.388;16.210;2023-03-01T15:45:33;21.05;;;13.63;;
45684;SDS011;46836;48.388;16.210;2023-03-01T15:48:00;22.73;;;12.05;;
45684;SDS011;46836;48.388;16.210;2023-03-01T15:50:33;19.80;;;11.57;;
45684;SDS011;46836;48.388;16.210;2023-03-01T15:53:06;19.95;;;11.60;;
45684;SDS011;46836;48.388;16.210;2023-03-01T15:55:38;17.45;;;12.52;;
45684;SDS011;46836;48.388;16.210;2023-03-01T15:58:06;21.33;;;12.32;;
45684;SDS011;46836;48.388;16.210;2023-03-01T16:00:39;18.67;;;13.25;;
45684;SDS011;46836;48.388;16.210;2023-03-01T16:03:23;17.83;;;12.52;;
45684;SDS011;46836;48.388;16.210;2023-03-01T16:05:50;21.60;;;12.10;;
45684;SDS011;46836;48.388;16.210;2023-03-01T16:08:18;20.00;;;13.13;;
45684;SDS011;46836;48.388;16.210;2023-03-01T16:10:45;25.45;;;13.63;;
45684;SDS011;46836;48.388;16.210;2023-03-01T16:13:14;20.17;;;13.38;;
45684;SDS011;46836;48.388;16.210;2023-03-01T16:15:42;22.48;;;13.70;;
45684;SDS011;46836;48.388;16.210;2023-03-01T16:18:10;19.05;;;12.98;;
45684;SDS011;46836;48.388;16.210;2023-03-01T16:20:38;19.98;;;13.00;;
45684;SDS011;46836;48.388;16.210;2023-03-01T16:23:07;22.20;;;12.73;;
45684;SDS011;46836;48.388;16.210;2023-03-01T16:25:35;17.45;;;12.95;;
45684;SDS011;46836;48.388;16.210;2023-03-01T16:28:03;25.05;;;15.40;;
45684;SDS011;46836;48.388;16.210;2023-03-01T16:30:36;20.60;;;12.55;;
45684;SDS011;46836;48.388;16.210;2023-03-01T16:33:04;24.48;;;14.32;;